createdAt,value
2023-05-21T00:01:59.326Z,31.70
2023-05-21T00:04:28.426Z,31.80
2023-05-21T00:06:57.408Z,31.90
2023-05-21T00:09:26.341Z,32.00
2023-05-21T00:11:55.290Z,32.10
2023-05-21T00:14:24.186Z,32.20
2023-05-21T00:16:53.138Z,32.20
2023-05-21T00:19:22.300Z,32.30
2023-05-21T00:21:51.271Z,32.40
2023-05-21T00:24:20.263Z,32.40
2023-05-21T00:26:49.276Z,32.50
2023-05-21T00:29:18.149Z,32.60
2023-05-21T00:31:50.168Z,32.60
2023-05-21T00:34:21.258Z,32.70
2023-05-21T00:36:50.344Z,32.70
2023-05-21T00:39:19.543Z,32.80
2023-05-21T00:41:48.641Z,32.80
2023-05-21T00:44:17.522Z,32.80
2023-05-21T00:46:46.515Z,32.90
2023-05-21T00:49:15.414Z,32.90
2023-05-21T00:51:44.298Z,32.90
2023-05-21T00:54:13.218Z,33.00
2023-05-21T00:56:42.609Z,33.00
2023-05-21T00:59:11.601Z,33.00
2023-05-21T01:01:40.833Z,33.10
2023-05-21T01:04:09.989Z,33.20
2023-05-21T01:06:38.993Z,33.20
2023-05-21T01:09:08.277Z,33.30
2023-05-21T01:11:37.375Z,33.30
2023-05-21T01:14:12.203Z,33.30
2023-05-21T01:16:44.868Z,33.40
2023-05-21T01:19:13.973Z,33.30
2023-05-21T01:21:43.171Z,33.40
2023-05-21T01:24:12.485Z,33.40
2023-05-21T01:26:41.414Z,33.40
2023-05-21T01:29:10.367Z,33.40
2023-05-21T01:31:39.451Z,33.50
2023-05-21T01:34:08.397Z,33.50
2023-05-21T01:36:37.334Z,33.60
2023-05-21T01:39:06.611Z,33.50
2023-05-21T01:41:35.857Z,33.60
2023-05-21T01:44:04.833Z,33.60
2023-05-21T01:46:34.164Z,33.60
2023-05-21T01:49:03.438Z,33.70
2023-05-21T01:51:32.425Z,33.70
2023-05-21T01:54:01.632Z,33.70
2023-05-21T01:56:31.036Z,33.70
2023-05-21T01:59:00.031Z,33.80
2023-05-21T02:01:29.180Z,33.80
2023-05-21T02:03:58.415Z,33.90
2023-05-21T02:06:30.144Z,33.90
2023-05-21T02:08:59.388Z,33.90
2023-05-21T02:11:28.578Z,33.90
2023-05-21T02:13:58.089Z,34.00
2023-05-21T02:16:27.095Z,34.10
2023-05-21T02:18:56.197Z,34.00
2023-05-21T02:21:25.268Z,34.10
2023-05-21T02:23:54.160Z,34.10
2023-05-21T02:26:23.263Z,34.10
2023-05-21T02:28:52.457Z,34.20
2023-05-21T02:31:21.657Z,34.20
2023-05-21T02:33:50.770Z,34.20
2023-05-21T02:36:19.839Z,34.30
2023-05-21T02:38:48.786Z,34.30
2023-05-21T02:41:18.046Z,34.30
2023-05-21T02:43:47.027Z,34.30
2023-05-21T02:46:16.730Z,34.40
2023-05-21T02:48:46.082Z,34.40
2023-05-21T02:51:16.400Z,34.50
2023-05-21T02:53:45.778Z,34.50
2023-05-21T02:56:14.863Z,34.50
2023-05-21T02:58:43.850Z,34.50
2023-05-21T03:01:13.080Z,34.60
2023-05-21T03:03:42.400Z,34.60
2023-05-21T03:06:11.288Z,34.60
2023-05-21T03:08:40.239Z,34.70
2023-05-21T03:11:09.233Z,34.70
2023-05-21T03:13:38.367Z,34.70
2023-05-21T03:16:07.501Z,34.80
2023-05-21T03:18:36.932Z,34.80
2023-05-21T03:21:06.017Z,34.80
2023-05-21T03:23:35.009Z,34.80
2023-05-21T03:26:04.011Z,34.90
2023-05-21T03:28:34.439Z,34.90
2023-05-21T03:31:03.336Z,34.90
2023-05-21T03:33:33.860Z,35.00
2023-05-21T03:36:04.490Z,35.00
2023-05-21T03:38:35.953Z,35.00
2023-05-21T03:41:05.346Z,35.00
2023-05-21T03:43:34.649Z,35.10
2023-05-21T03:46:04.097Z,35.10
2023-05-21T03:48:40.407Z,35.10
2023-05-21T03:51:10.940Z,35.20
2023-05-21T03:53:40.127Z,35.20
2023-05-21T03:56:09.241Z,35.20
2023-05-21T03:58:38.227Z,35.20
2023-05-21T04:01:10.373Z,35.20
2023-05-21T04:03:41.262Z,35.30
2023-05-21T04:06:11.768Z,35.30
2023-05-21T04:08:40.992Z,35.30
2023-05-21T04:11:10.216Z,35.40
2023-05-21T04:13:39.147Z,35.40
2023-05-21T04:16:08.487Z,35.40
2023-05-21T04:18:37.662Z,35.50
2023-05-21T04:21:07.066Z,35.50
2023-05-21T04:23:36.350Z,35.50
2023-05-21T04:26:06.788Z,35.50
2023-05-21T04:28:36.082Z,35.60
2023-05-21T04:31:05.094Z,35.60
2023-05-21T04:33:34.100Z,35.60
2023-05-21T04:36:03.387Z,35.60
2023-05-21T04:38:32.266Z,35.70
2023-05-21T04:41:01.250Z,35.70
2023-05-21T04:43:30.316Z,35.70
2023-05-21T04:46:00.773Z,35.70
2023-05-21T04:48:29.870Z,35.80
2023-05-21T04:50:58.827Z,35.80
2023-05-21T04:53:28.468Z,35.80
2023-05-21T04:55:57.563Z,35.80
2023-05-21T04:58:26.771Z,35.90
2023-05-21T05:00:56.098Z,35.90
2023-05-21T05:03:25.262Z,36.00
2023-05-21T05:05:54.361Z,35.90
2023-05-21T05:08:23.669Z,36.00
2023-05-21T05:10:52.659Z,36.00
2023-05-21T05:13:22.067Z,36.00
2023-05-21T05:15:52.587Z,36.00
2023-05-21T05:18:22.093Z,36.10
2023-05-21T05:20:51.493Z,36.10
2023-05-21T05:23:20.595Z,36.10
2023-05-21T05:25:51.576Z,36.10
2023-05-21T05:28:20.293Z,36.20
2023-05-21T05:30:49.855Z,36.20
2023-05-21T05:33:20.451Z,36.20
2023-05-21T05:35:49.652Z,36.20
2023-05-21T05:38:18.851Z,36.20
2023-05-21T05:40:48.566Z,36.30
2023-05-21T05:43:18.914Z,36.30
2023-05-21T05:45:48.313Z,36.40
2023-05-21T05:48:17.606Z,36.40
2023-05-21T05:50:46.783Z,36.40
2023-05-21T05:53:15.883Z,36.40
2023-05-21T05:55:45.085Z,36.40
2023-05-21T05:58:14.780Z,36.40
2023-05-21T06:00:45.715Z,36.40
2023-05-21T06:03:14.969Z,36.50
2023-05-21T06:05:44.119Z,36.50
2023-05-21T06:08:13.219Z,36.50
2023-05-21T06:10:42.220Z,36.50
2023-05-21T06:13:11.395Z,36.60
2023-05-21T06:15:40.606Z,36.60
2023-05-21T06:18:10.114Z,36.60
2023-05-21T06:20:39.624Z,36.60
2023-05-21T06:23:09.221Z,36.60
2023-05-21T06:25:38.730Z,36.60
2023-05-21T06:28:08.858Z,36.70
2023-05-21T06:30:39.792Z,36.70
2023-05-21T06:33:09.863Z,36.70
2023-05-21T06:35:38.999Z,36.70
2023-05-21T06:38:08.790Z,36.80
2023-05-21T06:40:38.228Z,36.80
2023-05-21T06:43:08.937Z,36.80
2023-05-21T06:45:42.278Z,36.90
2023-05-21T06:48:19.235Z,36.80
2023-05-21T06:50:48.729Z,36.90
2023-05-21T06:53:18.663Z,36.90
2023-05-21T06:55:47.546Z,36.90
2023-05-21T06:58:21.143Z,36.90
2023-05-21T07:00:50.468Z,37.00
2023-05-21T07:03:23.167Z,37.00
2023-05-21T07:05:53.053Z,37.00
2023-05-21T07:08:22.450Z,37.00
2023-05-21T07:10:51.952Z,37.00
2023-05-21T07:13:21.125Z,37.00
2023-05-21T07:15:50.129Z,37.00
2023-05-21T07:18:20.877Z,37.10
2023-05-21T07:20:51.403Z,37.10
2023-05-21T07:23:21.421Z,37.10
2023-05-21T07:25:50.820Z,37.20
2023-05-21T07:28:20.533Z,37.10
2023-05-21T07:30:49.926Z,37.20
2023-05-21T07:33:20.449Z,37.20
2023-05-21T07:35:50.172Z,37.20
2023-05-21T07:38:19.571Z,37.20
2023-05-21T07:40:48.895Z,37.20
2023-05-21T07:43:18.396Z,37.20
2023-05-21T07:45:47.902Z,37.30
2023-05-21T07:48:17.293Z,37.20
2023-05-21T12:43:48.205Z,35.90
2023-05-21T12:46:18.054Z,35.90
2023-05-21T12:48:47.638Z,36.00
2023-05-21T12:51:16.834Z,36.10
2023-05-21T12:53:46.016Z,36.20
2023-05-21T12:56:15.221Z,36.40
2023-05-21T12:58:44.629Z,36.50
2023-05-21T13:01:13.683Z,36.60
2023-05-21T13:03:43.178Z,36.70
2023-05-21T13:06:12.627Z,36.70
2023-05-21T13:08:41.922Z,36.80
2023-05-21T13:11:11.434Z,36.80
2023-05-21T13:13:40.636Z,36.90
2023-05-21T13:16:09.767Z,37.00
2023-05-21T13:18:39.439Z,37.00
2023-05-21T13:21:08.634Z,37.00
2023-05-21T13:23:37.839Z,37.00
2023-05-21T13:26:06.935Z,37.00
2023-05-21T13:28:36.132Z,37.00
2023-05-21T13:31:05.622Z,37.10
2023-05-21T13:33:35.094Z,36.80
2023-05-21T13:36:04.538Z,35.80
2023-05-21T13:38:33.743Z,34.60
2023-05-21T13:41:02.838Z,33.70
2023-05-21T13:43:32.241Z,32.80
2023-05-21T13:46:01.332Z,32.20
2023-05-21T13:48:30.733Z,31.70
2023-05-21T13:51:00.244Z,31.40
2023-05-21T13:53:29.331Z,31.30
2023-05-21T13:55:58.426Z,31.20
2023-05-21T13:58:27.715Z,31.20
2023-05-21T14:00:56.971Z,31.30
2023-05-21T14:03:26.155Z,31.30
2023-05-21T14:05:55.308Z,31.30
2023-05-21T14:08:24.409Z,31.30
2023-05-21T14:10:53.729Z,31.30
2023-05-21T14:13:22.944Z,31.30
2023-05-21T14:15:52.210Z,31.20
2023-05-21T14:18:23.414Z,31.20
2023-05-21T14:20:52.768Z,31.10
2023-05-21T14:23:22.259Z,31.00
2023-05-21T14:25:51.575Z,31.00
2023-05-21T14:28:20.764Z,31.10
2023-05-21T14:30:49.858Z,31.10
2023-05-21T14:33:19.228Z,31.10
2023-05-21T14:35:48.367Z,31.00
2023-05-21T14:38:17.661Z,31.00
2023-05-21T14:40:46.746Z,31.00
2023-05-21T14:43:15.753Z,30.90
2023-05-21T14:45:44.995Z,30.90
2023-05-21T14:48:14.250Z,30.90
2023-05-21T14:50:43.663Z,30.90
2023-05-21T14:53:12.925Z,30.90
2023-05-21T14:55:42.782Z,30.80
2023-05-21T14:58:12.270Z,30.90
2023-05-21T15:00:41.675Z,31.00
2023-05-21T15:03:10.719Z,31.00
2023-05-21T15:05:40.170Z,31.00
2023-05-21T15:08:09.163Z,31.00
2023-05-21T15:10:38.562Z,30.90
2023-05-21T15:13:07.749Z,30.90
2023-05-21T15:15:38.033Z,30.80
2023-05-21T15:18:07.709Z,30.70
2023-05-21T15:20:37.000Z,30.60
2023-05-21T15:23:15.972Z,30.60
2023-05-21T15:25:36.949Z,30.90
2023-05-21T15:28:06.654Z,31.20
2023-05-21T15:30:35.835Z,31.50
2023-05-21T15:33:05.023Z,31.60
2023-05-21T15:35:34.457Z,31.70
2023-05-21T15:38:03.755Z,31.80
2023-05-21T15:40:33.204Z,31.90
2023-05-21T15:43:02.549Z,32.00
2023-05-21T15:45:31.531Z,32.00
2023-05-21T15:48:00.889Z,32.10
2023-05-21T15:50:30.247Z,32.20
2023-05-21T15:52:59.592Z,32.20
2023-05-21T15:55:28.835Z,32.30
2023-05-21T15:57:59.582Z,32.30
2023-05-21T16:00:28.890Z,32.20
2023-05-21T16:02:58.310Z,32.30
2023-05-21T16:05:27.775Z,32.30
2023-05-21T16:07:57.090Z,32.30
2023-05-21T16:10:26.076Z,32.30
2023-05-21T16:12:55.172Z,32.30
2023-05-21T16:15:24.588Z,32.30
2023-05-21T16:17:53.757Z,32.30
2023-05-21T16:20:22.974Z,32.30
2023-05-21T16:22:52.277Z,32.30
2023-05-21T16:25:21.372Z,32.30
2023-05-21T16:27:50.465Z,32.30
2023-05-21T16:30:22.394Z,32.20
2023-05-21T16:32:51.872Z,32.20
2023-05-21T16:35:21.237Z,32.20
2023-05-21T16:37:50.326Z,32.30
2023-05-21T16:40:19.739Z,32.30
2023-05-21T16:42:49.140Z,32.30
2023-05-21T16:45:18.332Z,32.30
2023-05-21T16:47:48.189Z,32.30
2023-05-21T16:50:17.459Z,32.30
2023-05-21T16:52:46.654Z,32.30
2023-05-21T16:55:15.744Z,32.30
2023-05-21T16:57:44.834Z,32.30
2023-05-21T17:00:14.030Z,32.20
2023-05-21T17:02:43.491Z,32.20
2023-05-21T17:05:13.052Z,32.20
2023-05-21T17:07:42.558Z,32.20
2023-05-21T17:10:11.655Z,32.20
2023-05-21T17:12:40.750Z,32.20
2023-05-21T17:15:10.157Z,32.10
2023-05-21T17:17:39.381Z,32.10
2023-05-21T17:20:08.548Z,32.10
2023-05-21T17:22:37.992Z,32.10
2023-05-21T17:25:07.249Z,32.00
2023-05-21T17:27:36.530Z,32.00
2023-05-21T17:30:05.860Z,32.00
2023-05-21T17:32:35.294Z,32.00
2023-05-21T17:35:04.656Z,32.00
2023-05-21T17:37:34.064Z,32.00
2023-05-21T17:40:03.572Z,31.90
2023-05-21T17:42:32.661Z,31.90
2023-05-21T17:45:01.969Z,31.90
2023-05-21T17:47:31.287Z,31.90
2023-05-21T17:50:00.451Z,31.80
2023-05-21T17:52:29.544Z,31.80
2023-05-21T17:54:58.749Z,31.80
2023-05-21T17:57:27.950Z,31.80
2023-05-21T17:59:57.039Z,31.80
2023-05-21T18:02:28.164Z,31.80
2023-05-21T18:04:57.177Z,31.80
2023-05-21T18:07:26.062Z,31.80
2023-05-21T18:09:55.167Z,31.80
2023-05-21T18:12:24.376Z,31.80
2023-05-21T18:14:53.327Z,31.70
2023-05-21T18:17:22.352Z,31.70
2023-05-21T18:19:51.565Z,31.70
2023-05-21T18:22:21.484Z,31.70
2023-05-21T18:24:50.456Z,31.70
2023-05-21T18:27:19.658Z,31.70
2023-05-21T18:29:48.538Z,31.70
2023-05-21T18:32:17.497Z,31.70
2023-05-21T18:34:46.741Z,31.70
2023-05-21T18:37:16.039Z,31.70
2023-05-21T18:39:45.026Z,31.70
2023-05-21T18:42:14.573Z,31.70
2023-05-21T18:44:43.525Z,31.60
2023-05-21T18:47:12.414Z,31.60
2023-05-21T18:49:41.521Z,31.60
2023-05-21T18:52:10.825Z,31.60
2023-05-21T18:54:39.703Z,31.60
2023-05-21T18:57:08.709Z,31.60
2023-05-21T18:59:38.004Z,31.50
2023-05-21T19:02:07.115Z,31.50
2023-05-21T19:04:36.093Z,31.50
2023-05-21T19:07:05.085Z,31.50
2023-05-21T19:09:33.981Z,31.50
2023-05-21T19:12:02.964Z,31.40
2023-05-21T19:14:32.169Z,31.40
2023-05-21T19:17:01.266Z,31.40
2023-05-21T19:19:30.274Z,31.30
2023-05-21T19:21:59.348Z,31.40
2023-05-21T19:24:28.560Z,31.30
2023-05-21T19:26:57.969Z,31.30
2023-05-21T19:29:28.223Z,31.30
2023-05-21T19:31:57.169Z,31.30
2023-05-21T19:34:26.245Z,31.30
2023-05-21T19:36:58.342Z,31.20
2023-05-21T19:39:27.324Z,31.20
2023-05-21T19:41:56.433Z,31.20
2023-05-21T19:44:28.349Z,31.20
2023-05-21T19:46:57.693Z,31.20
2023-05-21T19:49:27.185Z,31.20
2023-05-21T19:51:56.287Z,31.10
2023-05-21T19:54:25.213Z,31.10
2023-05-21T19:56:54.061Z,31.10
2023-05-21T19:59:22.965Z,31.10
2023-05-21T20:01:51.851Z,31.10
2023-05-21T20:04:21.126Z,31.10
2023-05-21T20:06:50.352Z,31.00
2023-05-21T20:09:19.239Z,31.10
2023-05-21T20:11:48.140Z,31.00
2023-05-21T20:14:17.333Z,31.00
2023-05-21T20:16:46.686Z,30.90
2023-05-21T20:19:15.987Z,30.90
2023-05-21T20:21:45.362Z,30.90
2023-05-21T20:24:14.220Z,30.90
2023-05-21T20:26:43.218Z,30.90
2023-05-21T20:29:12.394Z,30.80
2023-05-21T20:31:41.401Z,30.80
2023-05-21T20:34:10.289Z,30.70
2023-05-21T20:36:39.285Z,30.70
2023-05-21T20:39:08.487Z,30.70
2023-05-21T20:41:37.863Z,30.70
2023-05-21T20:44:06.778Z,30.70
2023-05-21T20:46:35.688Z,30.70
2023-05-21T20:49:04.978Z,30.60
2023-05-21T20:51:34.484Z,30.70
2023-05-21T20:54:03.673Z,30.70
2023-05-21T20:59:02.783Z,30.60
2023-05-21T21:01:33.817Z,30.60
2023-05-21T21:04:02.946Z,30.50
2023-05-21T21:06:32.198Z,30.50
2023-05-21T21:09:01.228Z,30.50
2023-05-21T21:11:30.301Z,30.50
2023-05-21T21:13:59.523Z,30.50
2023-05-21T21:16:28.442Z,30.50
2023-05-21T21:18:57.592Z,30.40
2023-05-21T21:21:26.690Z,30.40
2023-05-21T21:23:55.889Z,30.40
2023-05-21T21:26:24.782Z,30.40
2023-05-21T21:28:53.881Z,30.40
2023-05-21T21:31:23.080Z,30.40
2023-05-21T21:33:52.116Z,30.50
2023-05-21T21:36:21.059Z,30.80
2023-05-21T21:38:50.276Z,31.10
2023-05-21T21:41:19.457Z,31.30
2023-05-21T21:43:48.696Z,31.40
2023-05-21T21:46:17.999Z,31.40
2023-05-21T21:48:46.956Z,31.40
2023-05-21T21:51:15.846Z,31.30
2023-05-21T21:53:44.742Z,31.20
2023-05-21T21:56:14.138Z,31.10
2023-05-21T21:58:43.125Z,30.90
2023-05-21T22:01:12.094Z,30.90
2023-05-21T22:03:44.834Z,31.00
2023-05-21T22:06:13.884Z,31.10
2023-05-21T22:08:42.888Z,31.30
2023-05-21T22:11:11.989Z,31.50
2023-05-21T22:13:42.648Z,31.60
2023-05-21T22:16:11.525Z,31.80
2023-05-21T22:18:41.428Z,32.00
2023-05-21T22:21:11.193Z,32.10
2023-05-21T22:23:40.148Z,32.20
2023-05-21T22:26:09.151Z,32.40
2023-05-21T22:28:38.423Z,32.50
2023-05-21T22:31:07.562Z,32.50
2023-05-21T22:33:36.517Z,32.60
2023-05-21T22:36:05.415Z,32.70
2023-05-21T22:38:34.617Z,32.80
2023-05-21T22:41:03.699Z,32.90
2023-05-21T22:43:34.780Z,32.90
2023-05-21T22:46:04.068Z,33.00
2023-05-21T22:48:34.680Z,33.10
2023-05-21T22:51:03.561Z,33.20
2023-05-21T22:53:32.772Z,33.20
2023-05-21T22:56:02.175Z,33.30
2023-05-21T22:58:31.085Z,33.40
2023-05-21T23:01:00.471Z,33.50
2023-05-21T23:03:29.348Z,33.50
2023-05-21T23:05:58.554Z,33.50
2023-05-21T23:08:30.437Z,33.50
2023-05-21T23:10:59.610Z,33.50
2023-05-21T23:13:28.699Z,33.60
2023-05-21T23:15:57.627Z,33.70
2023-05-21T23:18:26.998Z,33.70
2023-05-21T23:20:58.989Z,33.70
2023-05-21T23:23:28.260Z,33.70
2023-05-21T23:25:57.251Z,33.70
2023-05-21T23:28:26.470Z,33.70
2023-05-21T23:30:55.862Z,33.70
2023-05-21T23:33:25.345Z,33.80
2023-05-21T23:35:54.448Z,33.80
2023-05-21T23:38:23.763Z,33.80
2023-05-21T23:40:52.745Z,33.80
2023-05-21T23:43:22.060Z,33.80
2023-05-21T23:45:51.429Z,33.90
2023-05-21T23:48:20.694Z,33.90
2023-05-21T23:50:49.949Z,33.90
2023-05-21T23:53:19.462Z,33.90
2023-05-21T23:55:48.766Z,33.90
2023-05-21T23:58:17.950Z,33.90
